Bienvenidos al Sitio de AASANA BOLIVIA
Aeropuerto: Internaciónal El Alto
HORA UTC 01:00
09°C
Humedad: 67%

Fecha: 19/10/2018


Sin Fenómeno
ESTACIÓN:SLLP
LATITUD|LONGITUD:16-08S|68-10W
HORA UTC:01:00
DESCRIPCIÓN: SLLP 190100Z 35003KT 9999 FEW015 BKN200 09/03 Q1036 A3061 627.3 HR67 AC NOSIG=
Regional La Paz
EstaciónAerodromoSit. GeograficaDescripción
SLCNCharaña17-35S-69-25W
SLAPApolo14-44S-68-24W SLAP 312000Z 34015KSBAZ053‘4
SLLPInternaciónal El Alto16-08S-68-10W SLLP 190100Z 35003KT 9999 FEW015 BKN200 09/03 Q1036 A3061 627.3 HR67 AC NOSIG=
SLSBSan Borja14-51S-66-44W SLSB 182300Z 00000KT 9999 NSC 32/22 Q1004 A2965 HR54 CI RWY NML=
SLUYUyuni20-27S-62-52W SLUY 190000Z 03008KT 9999 FEW012 FEW015CB 10/M04 Q1031 A3046 656.5 HR37 CB/LT SE/S AC/CI=
SLOROruro17-57S-67-04W SLOR 182000Z 02010G21KT 9999 SCT023 FEW025CB BKN200 20/09 Q1031 A3045 653.3 HR50 CB/SH N/E/SE RETS AC=
SLRQRurrenabaque14-25S-67-29W SLRQ 182200Z 00000KT 9999 FEW017 33/25 Q1003 A2962 979.1 HR63 AC CI=
SLRYReyes14-18S-67-21W SLRY 182200Z 34008KT 9999 NSC 35/22 Q1003 A2964 HR49 CI RWY NML=
SLCCCopacabana - Tito Yupanqui16-11S-69-05W SLCC 282100Z 00000KT 9999 FEW023 12/06 Q1034 A3056 644,0 HR72 AC CI=
Regional Cochabamba
EstaciónAerodromoSit. GeograficaDescripción
SLCBCochabamba17-25S-66-10W SLCB 190100Z 00000KT 9999 FEW080 BKN200 18/08 Q1023 A3021 749.9 HR50 FU NOSIG=
SLVMVillamontes21-15S-63-24W SLVM 182200Z 00000KT 9999 TS FEW030CB OVC070 35/23 Q1003 A2963 HR52 FU CB ON STN/SW/W/NW=
SLBJBermejo22-46S-64-18W SLBJ 072000Z 18004KT 9999 SCT025 FEW025TCU BKN200 31/26 Q1004 A2965 HR71 TCU/N/NE/NW=
SLAGMonteagudo19-49S-63-58W SLAG 182200Z 00000KT 9999 FEW033 FEW036CB BKN200 29/21 Q1009 A2981 882.3 HR62 CB S/SW/W FU AC=
SLYAYacuiba21-57S-63-39W SLYA 182300Z 21006KT 9999 SCT020 BKN070 30/22 Q1006 A2972 931,7 HR62=
SLHIChimore16-58S-65-09W SLHI 181900Z 34003KT 9999 FEW017 34/26 Q1007 A2974 979.9 HR60 FU CI=
SLPOPotosí19-32S-65-43W SLPO 181700Z 06010KT 9999 BKN020 19/12 Q1038 A3065 638.0 HR63=
SLTJTarija21-33S-64-42W SLTJ 190100Z 00000KT 9999 SCT030 FEW033CB BKN070 16/14 Q1021 A3018 816.5 HR89 CB/LT/E/SE/S/SW CI RETSRA=
SLALAlcantari19-14S-65-09W SLAL 190100Z 06009KT 9999 FEW015 SCT200 16/09 Q1029 A3039 704.0 HR64 AC=
Regional Santa Cruz
EstaciónAerodromoSit. GeograficaDescripción
SLSISan Ignacio de Velasco16-23S-60-57W SLSI 182300Z 36006KT 8000 SCT020 31/24 Q1007 A2974 HR65 FU RWY NML=
SLASAscención de Guarayos15-55S-63-09W SLAS 182300Z 36010KT 9999 NSC 29/24 Q1007 A2974 HR73 FU RWY NML =
SLJVSan Javier16-16S-62-28W SLJV 182200Z 00000KT 9999 NSC 30/21 Q1006 A2971 HR60 FU RWY NML =
SLPSPuerto Suárez18-58S-57-49W SLPS 182300Z 02004KT 8000 NSC 30/25 Q1004 A2965 HR73 FU CI=
SLETEl Trompillo17-48S-63-10W SLET 182300Z 31011G22KT 9999 FEW017 SCT070 BKN200 30/22 Q1005 A2969 HR65 NOSIG=
SLCPConcepción16-08S-62-01W SLCP 182200Z 33005KT 8000 FEW020 BKN200 32/24 Q1010 A2983 HR62 FU RWY NML=
SLRBRoboré18-19S-59-45W SLRB 182300Z 36006KT 9999 NSC 30/25 Q1007 A2974 HR72 RWY NML=
SLCACamiri20-00S-63-31W SLCA 182300Z 00000KT 9999 SCT036 OVC070 25/22 Q1010 A2983 HR83 RWY NML=
SLJESan José de Chiquitos17-49S-60-44W SLJE 182200Z 00000KT 9999 NSC 37/20 Q1007 A2974 HR38 RWY NML=
SLVRInternaciónal Viru Viru17-38S-63-08W SLVR 190100Z 34006KT 9999 NSC 27/23 Q1007 A2976 HR81 CI NOSIG=
SLTISan Matías16-20S-58-24W SLTI 182200Z 00000KT 9999 SCT017 OVC200 27/23 Q1010 A2983 HR77 RWY NML=
SLVGValle Grande18-28S-64-05W SLVG 182100Z 00000KT 9999 SCT027 FEW030CB BKN200 24/17 Q1020 A3012 HR62 CB S RWY HUM OPR=
Regional Beni
EstaciónAerodromoSit. GeograficaDescripción
SLCOCobija11-02S-68-47W SLCO 182300Z 03003KT 9999 FEW023 FEW025CB SCT200 30/25 Q1006 A2972 979.0 HR76 CB/LT NE/NW=
SLBUBaures13-39S-63-42W SLBU 182200Z NIL=
SLSMSan Ignacio de Moxos14-57S-65-38W SLSM 182200Z 36004KT 9999 FEW017 SCT200 33/24 Q1003 A2963 HR60 RWY NML=
SLJOSan Joaquin13-03S-64-39W COR SLJO 182200Z 32006KT 7000 TS VCSH SCT017 FEW023CB BKN200 31/24 Q1006 A2970 HR67 CB/TS/SH NE/E RWY NML=
SLRASan Ramón13-15S-64-36W SLRA 182200Z 00000KT 6000 TS VCSH FEW023 FEW027CB BKN200 34/24 Q1005 A2970 HR57 FU CB N/NE/W TS/SH N/NE RWY NML=
SLGMGuayaramerín10-53S-65-23W SLGM 182300Z 00000KT 9999 FEW017 SCT080 BKN200 29/25 Q1006 A2972 HR79=
SLSASanta Ana de Yacuma13-45S-65-26W SLSA 182300Z 00000KT 8000 FEW020 FEW023CB BKN200 31/24 Q1004 A2965 HR64 FU CB N=
SLMGSan Magdalena13-15S-64-36W SLMG 182300Z 00000KT 8000 FEW017 FEW023CB BKN200 31/25 Q1006 A2973 HR70 FU CB NW RWY NML=
SLRIRiberalta11-00S-66-04W SLRI 182300Z 00000KT 8000 FEW015 FEW020CB BKN200 30/25 Q1006 A2973 HR73 FU CB W=
SLTRTrinidad14-49S-64-54W SLTR 182300Z 36004KT 9999 NSC 31/24 Q1005 A2969 987.0 HR67 CI NOSIG=
SLSRSanta Rosa14-04S-66-47W SLSR 182200Z 32007KT 7000 VCSH FEW017 FEW023CB BKN200 33/23 Q1003 A2962 HR56 FU CB/SH N/NE RWY NML=